Time;durP1;ratioP1;P1;durP2;ratioP2;P2;SDS_P1;SDS_P2;PMS_P1;PMS_P2;Temp;Humidity;BMP_temperature;BMP_pressure;BME280_temperature;BME280_humidity;BME280_pressure;Samples;Min_cycle;Max_cycle;Signal;HPM_P1;HPM_P2
2022/04/25 00:00:37;;;;;;;;;22.50;19.25;;;;;;;;5081600;27;45388;-61
2022/04/25 00:03:03;;;;;;;;;25.25;20.75;;;;;;;;5078860;27;45340;-60
2022/04/25 00:05:28;;;;;;;;;21.25;20.50;;;;;;;;5081918;27;46395;-61
2022/04/25 00:07:54;;;;;;;;;21.00;21.00;;;;;;;;5082850;27;45435;-62
2022/04/25 00:10:19;;;;;;;;;21.75;21.75;;;;;;;;5083852;27;45309;-60
2022/04/25 00:12:44;;;;;;;;;19.00;17.00;;;;;;;;5059721;27;45389;-61
2022/04/25 00:15:11;;;;;;;;;23.50;17.50;;;;;;;;5075868;27;47342;-63
2022/04/25 00:17:36;;;;;;;;;24.00;18.75;;;;;;;;5081818;27;45205;-61
2022/04/25 00:20:02;;;;;;;;;19.00;18.00;;;;;;;;5066847;28;45247;-60
2022/04/25 00:22:27;;;;;;;;;22.25;21.50;;;;;;;;5065264;28;45233;-61
2022/04/25 00:24:52;;;;;;;;;18.50;18.50;;;;;;;;5082333;27;45570;-61
2022/04/25 00:27:18;;;;;;;;;20.75;19.25;;;;;;;;5077916;27;45628;-60
2022/04/25 00:29:43;;;;;;;;;16.50;16.50;;;;;;;;5079406;27;45416;-60
2022/04/25 00:32:08;;;;;;;;;21.75;21.75;;;;;;;;5082574;27;45654;-60
2022/04/25 00:34:34;;;;;;;;;17.50;17.25;;;;;;;;5082112;27;45680;-60
2022/04/25 00:36:59;;;;;;;;;24.00;21.50;;;;;;;;5083058;27;45546;-60
2022/04/25 00:39:24;;;;;;;;;18.25;16.00;;;;;;;;5094274;27;45649;-60
2022/04/25 00:41:50;;;;;;;;;19.50;19.50;;;;;;;;5078243;27;45385;-60
2022/04/25 00:44:16;;;;;;;;;17.25;16.75;;;;;;;;5082258;27;46348;-60
2022/04/25 00:46:43;;;;;;;;;15.25;15.25;;;;;;;;5086189;27;45900;-60
2022/04/25 00:49:08;;;;;;;;;17.25;17.00;;;;;;;;5076731;27;45656;-63
2022/04/25 00:51:33;;;;;;;;;16.75;16.75;;;;;;;;5084970;27;45560;-61
2022/04/25 00:53:59;;;;;;;;;18.25;16.25;;;;;;;;5066840;27;47897;-62
2022/04/25 00:56:25;;;;;;;;;19.50;17.75;;;;;;;;5090324;27;45502;-62
2022/04/25 00:58:51;;;;;;;;;13.50;13.25;;;;;;;;5090845;27;45548;-61
2022/04/25 01:01:16;;;;;;;;;17.00;16.00;;;;;;;;5093743;27;45443;-61
2022/04/25 01:03:41;;;;;;;;;18.00;15.75;;;;;;;;5092868;27;46053;-62
2022/04/25 01:06:06;;;;;;;;;18.50;17.75;;;;;;;;5091906;27;45321;-61
2022/04/25 01:08:37;;;;;;;;;15.25;15.25;;;;;;;;5089989;27;45577;-61
2022/04/25 01:11:03;;;;;;;;;16.25;16.00;;;;;;;;5091667;27;45819;-61
2022/04/25 01:13:28;;;;;;;;;16.25;15.00;;;;;;;;5093343;27;46280;-61
2022/04/25 01:15:53;;;;;;;;;18.50;15.25;;;;;;;;5087570;27;46074;-61
2022/04/25 01:18:18;;;;;;;;;15.25;14.75;;;;;;;;5091173;27;45381;-61
2022/04/25 01:20:44;;;;;;;;;15.00;14.50;;;;;;;;5078173;27;45485;-61
2022/04/25 01:28:43;;;;;;;;;15.00;14.00;;;;;;;;5091547;27;45422;-61
2022/04/25 01:31:08;;;;;;;;;15.00;15.00;;;;;;;;5079164;27;45390;-61
2022/04/25 01:33:34;;;;;;;;;12.75;12.25;;;;;;;;5080918;27;45635;-60
2022/04/25 01:35:59;;;;;;;;;17.75;15.00;;;;;;;;5080933;27;45434;-60
2022/04/25 01:38:24;;;;;;;;;17.25;15.75;;;;;;;;5081221;27;45386;-60
2022/04/25 01:40:49;;;;;;;;;15.50;14.75;;;;;;;;5093086;27;45490;-61
2022/04/25 01:43:14;;;;;;;;;17.75;16.00;;;;;;;;5075377;27;46394;-60
2022/04/25 01:45:40;;;;;;;;;17.50;15.25;;;;;;;;5081737;27;45531;-60
2022/04/25 01:48:06;;;;;;;;;15.50;14.00;;;;;;;;5081038;27;45501;-60
2022/04/25 01:50:31;;;;;;;;;16.25;15.25;;;;;;;;5081026;27;45815;-61
2022/04/25 01:52:56;;;;;;;;;16.50;12.50;;;;;;;;5077237;27;46375;-61
2022/04/25 01:55:21;;;;;;;;;18.50;18.00;;;;;;;;5074991;27;45409;-61
2022/04/25 01:57:47;;;;;;;;;18.75;17.00;;;;;;;;5041774;27;45547;-61
2022/04/25 02:00:12;;;;;;;;;18.00;18.00;;;;;;;;5058872;28;45476;-60
2022/04/25 02:02:37;;;;;;;;;13.00;13.00;;;;;;;;5072582;27;47464;-61
2022/04/25 02:05:04;;;;;;;;;13.00;12.50;;;;;;;;5093207;27;45660;-60
2022/04/25 02:07:29;;;;;;;;;15.00;14.25;;;;;;;;5076745;27;45369;-61
2022/04/25 02:09:54;;;;;;;;;18.25;17.50;;;;;;;;5080602;27;45536;-61
2022/04/25 02:12:20;;;;;;;;;11.25;7.75;;;;;;;;5080946;27;46622;-61
2022/04/25 02:14:46;;;;;;;;;21.25;18.25;;;;;;;;5080510;27;45499;-61
2022/04/25 02:17:13;;;;;;;;;17.00;13.75;;;;;;;;5079475;27;45409;-61
2022/04/25 02:19:38;;;;;;;;;17.50;15.25;;;;;;;;5096628;27;45405;-60
2022/04/25 02:22:05;;;;;;;;;11.75;11.75;;;;;;;;5082666;27;46473;-61
2022/04/25 02:24:31;;;;;;;;;22.75;20.00;;;;;;;;5080340;27;45566;-62
2022/04/25 02:26:56;;;;;;;;;19.00;17.75;;;;;;;;5091665;27;45531;-61
2022/04/25 02:29:22;;;;;;;;;17.00;16.50;;;;;;;;5059594;28;47344;-61
2022/04/25 02:31:47;;;;;;;;;19.00;15.75;;;;;;;;5089358;27;46475;-61
2022/04/25 02:34:12;;;;;;;;;17.50;15.25;;;;;;;;5096876;27;45384;-61
2022/04/25 02:36:37;;;;;;;;;21.25;17.50;;;;;;;;5085544;27;45394;-61
2022/04/25 02:39:03;;;;;;;;;20.25;19.50;;;;;;;;5084707;27;45596;-61
2022/04/25 02:41:29;;;;;;;;;17.75;17.75;;;;;;;;5084492;27;46060;-61
2022/04/25 02:43:54;;;;;;;;;20.50;18.75;;;;;;;;5080517;27;45905;-61
2022/04/25 02:46:19;;;;;;;;;16.75;16.75;;;;;;;;5080802;27;45642;-61
2022/04/25 02:48:45;;;;;;;;;20.75;18.50;;;;;;;;5084249;27;45581;-61
2022/04/25 02:51:11;;;;;;;;;19.75;19.75;;;;;;;;5065750;28;46285;-60
2022/04/25 02:53:37;;;;;;;;;20.75;20.25;;;;;;;;5084544;27;45610;-60
2022/04/25 02:56:02;;;;;;;;;23.25;20.75;;;;;;;;5081289;27;45539;-60
2022/04/25 02:58:29;;;;;;;;;18.50;15.25;;;;;;;;5096266;27;45507;-61
2022/04/25 03:00:55;;;;;;;;;20.50;19.00;;;;;;;;5064888;28;48556;-61
2022/04/25 03:03:21;;;;;;;;;19.50;17.50;;;;;;;;5083783;27;45455;-61
2022/04/25 03:05:48;;;;;;;;;21.00;18.00;;;;;;;;5084177;27;45549;-61
2022/04/25 03:08:15;;;;;;;;;22.75;19.25;;;;;;;;5058435;28;45634;-61
2022/04/25 03:10:42;;;;;;;;;20.25;20.25;;;;;;;;5077980;27;46130;-61
2022/04/25 03:13:08;;;;;;;;;21.50;16.50;;;;;;;;5081401;27;45342;-61
2022/04/25 03:15:34;;;;;;;;;21.50;18.25;;;;;;;;5083779;27;45415;-61
2022/04/25 03:17:59;;;;;;;;;15.75;15.75;;;;;;;;5084001;27;45383;-61
2022/04/25 03:20:24;;;;;;;;;19.25;18.25;;;;;;;;5083346;27;46261;-61
2022/04/25 03:22:50;;;;;;;;;16.75;15.50;;;;;;;;5079419;27;45399;-61
2022/04/25 03:25:15;;;;;;;;;19.25;18.75;;;;;;;;5080358;27;45420;-61
2022/04/25 03:27:40;;;;;;;;;18.25;18.00;;;;;;;;5083892;27;45426;-61
2022/04/25 03:30:06;;;;;;;;;20.75;19.25;;;;;;;;5082905;27;45992;-61
2022/04/25 03:32:31;;;;;;;;;15.25;15.25;;;;;;;;5083798;27;45454;-60
2022/04/25 03:34:57;;;;;;;;;23.00;21.50;;;;;;;;5080155;27;45566;-61
2022/04/25 03:37:24;;;;;;;;;22.50;20.50;;;;;;;;5095698;27;45469;-61
2022/04/25 03:39:49;;;;;;;;;19.75;17.50;;;;;;;;5082959;27;45755;-60
2022/04/25 03:42:15;;;;;;;;;20.50;20.50;;;;;;;;5083512;27;45613;-60
2022/04/25 03:44:41;;;;;;;;;24.50;22.00;;;;;;;;5083657;27;45375;-61
2022/04/25 03:47:06;;;;;;;;;20.25;20.00;;;;;;;;5056726;28;45449;-61
2022/04/25 03:49:31;;;;;;;;;20.50;19.50;;;;;;;;5076620;27;45964;-60
2022/04/25 03:51:56;;;;;;;;;25.50;19.50;;;;;;;;5082619;27;45493;-60
2022/04/25 03:57:12;;;;;;;;;21.25;21.25;;;;;;;;5083363;27;45442;-60
2022/04/25 03:59:37;;;;;;;;;21.25;21.25;;;;;;;;5082973;27;45741;-61
2022/04/25 04:02:04;;;;;;;;;22.25;21.75;;;;;;;;5080075;27;45569;-60
2022/04/25 04:04:29;;;;;;;;;24.00;22.25;;;;;;;;5062169;27;45342;-62
2022/04/25 04:06:55;;;;;;;;;22.50;22.00;;;;;;;;5082353;27;45471;-63
2022/04/25 04:12:04;;;;;;;;;25.50;19.75;;;;;;;;5085791;27;45581;-63
2022/04/25 04:14:30;;;;;;;;;26.75;24.25;;;;;;;;5089834;27;45479;-64
2022/04/25 04:16:55;;;;;;;;;19.00;18.75;;;;;;;;5073475;27;45604;-62
2022/04/25 04:19:20;;;;;;;;;24.75;24.00;;;;;;;;5089077;27;45482;-62
2022/04/25 04:21:46;;;;;;;;;24.00;20.25;;;;;;;;5094653;27;45646;-62
2022/04/25 04:24:11;;;;;;;;;27.50;26.00;;;;;;;;5077724;27;45442;-63
2022/04/25 04:26:36;;;;;;;;;23.75;23.75;;;;;;;;5094843;27;45399;-62
2022/04/25 04:29:01;;;;;;;;;23.75;22.25;;;;;;;;5083963;27;45768;-62
2022/04/25 04:31:26;;;;;;;;;22.75;20.00;;;;;;;;5081946;27;45491;-61
2022/04/25 04:33:51;;;;;;;;;36.75;27.00;;;;;;;;5082098;27;45344;-63
2022/04/25 04:36:22;;;;;;;;;25.75;23.00;;;;;;;;5077363;27;45670;-62
2022/04/25 04:38:47;;;;;;;;;25.75;24.50;;;;;;;;5090583;27;45814;-61
2022/04/25 04:41:12;;;;;;;;;24.75;23.50;;;;;;;;5082303;27;45402;-61
2022/04/25 04:43:38;;;;;;;;;26.75;22.25;;;;;;;;5067806;28;45505;-61
2022/04/25 04:46:03;;;;;;;;;27.25;26.75;;;;;;;;5082113;27;45482;-61
2022/04/25 04:48:28;;;;;;;;;28.75;28.25;;;;;;;;5078688;27;45644;-61
2022/04/25 04:50:55;;;;;;;;;28.75;25.00;;;;;;;;5077721;27;45432;-62
2022/04/25 04:53:21;;;;;;;;;29.75;27.50;;;;;;;;5075896;27;45618;-62
2022/04/25 04:55:46;;;;;;;;;34.75;32.25;;;;;;;;5066066;28;45451;-61
2022/04/25 04:58:11;;;;;;;;;28.25;27.00;;;;;;;;5084685;27;45768;-62
2022/04/25 05:00:36;;;;;;;;;25.00;23.50;;;;;;;;5093527;27;45503;-62
2022/04/25 05:03:03;;;;;;;;;29.25;27.00;;;;;;;;5077916;27;45591;-62
2022/04/25 05:05:28;;;;;;;;;34.50;31.00;;;;;;;;5080887;27;45661;-62
2022/04/25 05:07:53;;;;;;;;;38.00;33.25;;;;;;;;5081775;27;46324;-62
2022/04/25 05:10:19;;;;;;;;;34.00;32.25;;;;;;;;5082128;27;45312;-62
2022/04/25 05:12:44;;;;;;;;;34.00;29.75;;;;;;;;5081131;27;45469;-62
2022/04/25 05:15:10;;;;;;;;;33.00;31.75;;;;;;;;5077248;27;45654;-62
2022/04/25 05:17:35;;;;;;;;;32.00;30.25;;;;;;;;5061169;28;47926;-61
2022/04/25 05:20:00;;;;;;;;;43.50;34.50;;;;;;;;5082010;27;45619;-62
2022/04/25 05:22:26;;;;;;;;;35.50;32.00;;;;;;;;5082124;27;45623;-61
2022/04/25 05:24:51;;;;;;;;;37.75;33.50;;;;;;;;5081884;27;45604;-61
2022/04/25 05:27:16;;;;;;;;;26.25;24.50;;;;;;;;5076906;27;46302;-62
2022/04/25 05:29:41;;;;;;;;;38.25;35.50;;;;;;;;5078639;27;45461;-62
2022/04/25 05:32:07;;;;;;;;;43.50;37.00;;;;;;;;5092283;27;45653;-62
2022/04/25 05:34:32;;;;;;;;;35.00;32.75;;;;;;;;5087815;27;45538;-62
2022/04/25 05:36:57;;;;;;;;;33.75;32.75;;;;;;;;5081502;27;45527;-62
2022/04/25 05:39:22;;;;;;;;;38.75;34.75;;;;;;;;5077422;27;45515;-63
2022/04/25 05:41:48;;;;;;;;;37.50;34.75;;;;;;;;5076942;27;45461;-62
2022/04/25 05:44:13;;;;;;;;;44.25;39.00;;;;;;;;5081777;27;45400;-62
2022/04/25 05:46:39;;;;;;;;;48.50;38.00;;;;;;;;5060485;28;47446;-61
2022/04/25 05:52:02;;;;;;;;;48.25;36.50;;;;;;;;5095284;27;45530;-62
2022/04/25 05:54:27;;;;;;;;;39.50;36.25;;;;;;;;5088308;27;45416;-61
2022/04/25 05:56:53;;;;;;;;;49.25;39.50;;;;;;;;5080005;27;48712;-61
2022/04/25 05:59:18;;;;;;;;;43.25;37.75;;;;;;;;5099667;27;45721;-62
2022/04/25 06:01:44;;;;;;;;;34.50;32.75;;;;;;;;5099284;27;45526;-62
2022/04/25 06:04:09;;;;;;;;;42.00;36.00;;;;;;;;5080427;27;45686;-62
2022/04/25 06:06:34;;;;;;;;;38.25;34.75;;;;;;;;5080630;27;48116;-62
2022/04/25 06:09:00;;;;;;;;;38.00;35.75;;;;;;;;5099542;27;45396;-61
2022/04/25 06:11:26;;;;;;;;;44.50;36.25;;;;;;;;5099885;27;45553;-62
2022/04/25 06:13:52;;;;;;;;;46.25;37.50;;;;;;;;5096393;27;45559;-62
2022/04/25 06:16:17;;;;;;;;;46.50;38.25;;;;;;;;5079972;27;46633;-62
2022/04/25 06:18:42;;;;;;;;;36.25;33.75;;;;;;;;5099856;27;45409;-62
2022/04/25 06:21:07;;;;;;;;;47.50;38.75;;;;;;;;5079712;27;45494;-62
2022/04/25 06:23:32;;;;;;;;;43.00;39.25;;;;;;;;5098423;27;45445;-63
2022/04/25 06:25:58;;;;;;;;;53.00;41.50;;;;;;;;5078571;27;47576;-62
2022/04/25 06:28:26;;;;;;;;;45.25;36.50;;;;;;;;5098450;27;45836;-62
2022/04/25 06:30:51;;;;;;;;;43.25;36.75;;;;;;;;5091765;27;45598;-62
2022/04/25 06:33:17;;;;;;;;;44.75;37.00;;;;;;;;5086211;27;45510;-61
2022/04/25 06:35:43;;;;;;;;;44.00;37.50;;;;;;;;5090348;27;45962;-62
2022/04/25 06:38:08;;;;;;;;;32.00;30.75;;;;;;;;5092763;27;45430;-61
2022/04/25 06:40:33;;;;;;;;;50.25;41.25;;;;;;;;5096230;27;45410;-61
2022/04/25 06:42:59;;;;;;;;;37.75;34.50;;;;;;;;5083456;27;45372;-61
2022/04/25 06:45:24;;;;;;;;;42.00;37.50;;;;;;;;5076326;27;47403;-61
2022/04/25 06:47:50;;;;;;;;;43.00;38.00;;;;;;;;5095540;27;45519;-62
2022/04/25 06:50:15;;;;;;;;;49.00;40.75;;;;;;;;5079423;27;45638;-61
2022/04/25 06:52:40;;;;;;;;;48.50;38.50;;;;;;;;5095933;27;45554;-61
2022/04/25 06:55:07;;;;;;;;;48.25;41.25;;;;;;;;5075395;27;46936;-61
2022/04/25 06:57:33;;;;;;;;;38.75;35.25;;;;;;;;5097705;27;45424;-61
2022/04/25 06:59:59;;;;;;;;;48.25;39.50;;;;;;;;5075323;27;45527;-61
2022/04/25 07:02:24;;;;;;;;;46.25;39.00;;;;;;;;5097843;27;45363;-61
2022/04/25 07:04:49;;;;;;;;;43.75;38.00;;;;;;;;5077743;27;45629;-62
2022/04/25 07:07:15;;;;;;;;;48.50;39.25;;;;;;;;5077663;27;45441;-62
2022/04/25 07:09:40;;;;;;;;;44.25;37.50;;;;;;;;5084245;27;45411;-61
2022/04/25 07:12:06;;;;;;;;;37.25;33.75;;;;;;;;5081385;27;45438;-62
2022/04/25 07:14:33;;;;;;;;;44.75;39.50;;;;;;;;5094014;27;45555;-62
2022/04/25 07:16:59;;;;;;;;;50.75;39.00;;;;;;;;5080431;27;45558;-62
2022/04/25 07:19:25;;;;;;;;;47.75;40.25;;;;;;;;5060504;27;45401;-61
2022/04/25 07:30:14;;;;;;;;;41.25;37.25;;;;;;;;5044838;28;45514;-62
2022/04/25 07:32:40;;;;;;;;;47.50;40.50;;;;;;;;5040586;28;45410;-62
2022/04/25 07:35:06;;;;;;;;;46.25;39.25;;;;;;;;5038909;28;46180;-65
2022/04/25 07:37:33;;;;;;;;;45.50;38.00;;;;;;;;5036302;28;45604;-62
2022/04/25 07:39:58;;;;;;;;;45.25;37.50;;;;;;;;5022602;28;45511;-62
2022/04/25 07:42:23;;;;;;;;;51.50;41.75;;;;;;;;5028595;28;45927;-65
2022/04/25 07:44:49;;;;;;;;;42.00;37.00;;;;;;;;5039620;28;45964;-64
2022/04/25 07:47:14;;;;;;;;;45.50;38.25;;;;;;;;5038395;28;45531;-64
2022/04/25 07:49:40;;;;;;;;;45.00;38.00;;;;;;;;5035388;28;45405;-64
2022/04/25 07:52:06;;;;;;;;;45.50;40.50;;;;;;;;5038230;28;45517;-64
2022/04/25 07:54:31;;;;;;;;;47.50;38.75;;;;;;;;5039709;28;45609;-64
2022/04/25 07:56:56;;;;;;;;;49.00;41.50;;;;;;;;5039516;28;45516;-62
2022/04/25 07:59:21;;;;;;;;;43.75;36.25;;;;;;;;5023211;28;45381;-63
2022/04/25 08:01:46;;;;;;;;;41.50;37.50;;;;;;;;5051086;28;45823;-64
2022/04/25 08:04:12;;;;;;;;;47.25;40.00;;;;;;;;5061816;27;46480;-64
2022/04/25 08:06:37;;;;;;;;;42.75;37.25;;;;;;;;5084817;27;45527;-64
2022/04/25 08:09:03;;;;;;;;;46.00;38.25;;;;;;;;5065786;28;45525;-64
2022/04/25 08:11:28;;;;;;;;;42.75;37.25;;;;;;;;5065714;27;45576;-64
2022/04/25 08:19:21;;;;;;;;;47.00;40.25;;;;;;;;5092560;27;45412;-64
2022/04/25 08:21:47;;;;;;;;;44.50;37.00;;;;;;;;5068641;28;45507;-63
2022/04/25 08:24:12;;;;;;;;;46.25;39.00;;;;;;;;5072184;27;48881;-64
2022/04/25 08:26:38;;;;;;;;;48.25;40.00;;;;;;;;5093451;27;45768;-64
2022/04/25 08:29:03;;;;;;;;;44.75;36.00;;;;;;;;5080700;27;45839;-64
2022/04/25 08:31:28;;;;;;;;;37.25;34.00;;;;;;;;5079060;27;45443;-63
2022/04/25 08:33:55;;;;;;;;;36.50;31.50;;;;;;;;5068055;27;46345;-64
2022/04/25 08:36:20;;;;;;;;;41.25;36.50;;;;;;;;5087252;27;45471;-64
2022/04/25 08:38:46;;;;;;;;;46.00;40.00;;;;;;;;5083641;27;45392;-64
2022/04/25 08:41:12;;;;;;;;;47.00;39.25;;;;;;;;5082188;27;45485;-64
2022/04/25 08:43:38;;;;;;;;;45.75;37.00;;;;;;;;5061112;27;47377;-64
2022/04/25 08:46:05;;;;;;;;;45.25;38.75;;;;;;;;5081644;27;45541;-65
2022/04/25 08:48:31;;;;;;;;;43.75;35.75;;;;;;;;5083377;27;45371;-64
2022/04/25 08:50:57;;;;;;;;;46.25;37.00;;;;;;;;5083993;27;45376;-65
2022/04/25 08:53:23;;;;;;;;;49.00;39.75;;;;;;;;5058881;27;46474;-67
2022/04/25 08:55:48;;;;;;;;;47.75;40.25;;;;;;;;5078639;27;45328;-64
2022/04/25 08:58:15;;;;;;;;;39.50;35.50;;;;;;;;5071753;27;45471;-64
2022/04/25 09:00:41;;;;;;;;;48.00;39.50;;;;;;;;5067386;28;45646;-64
2022/04/25 09:03:07;;;;;;;;;45.25;39.00;;;;;;;;5083985;27;46839;-64
2022/04/25 09:05:35;;;;;;;;;47.25;39.00;;;;;;;;5072109;28;46018;-65
2022/04/25 09:08:00;;;;;;;;;42.50;35.00;;;;;;;;5078834;27;45610;-64
2022/04/25 09:10:27;;;;;;;;;45.25;38.75;;;;;;;;5077821;27;45299;-64
2022/04/25 09:12:53;;;;;;;;;42.00;35.25;;;;;;;;5081131;27;45462;-65
2022/04/25 09:15:20;;;;;;;;;43.75;36.25;;;;;;;;5081773;27;45491;-65
2022/04/25 09:17:46;;;;;;;;;44.50;37.00;;;;;;;;5052617;27;45363;-65
2022/04/25 09:20:11;;;;;;;;;39.00;35.25;;;;;;;;5074443;27;45533;-64
2022/04/25 09:22:40;;;;;;;;;42.25;36.00;;;;;;;;5073651;27;47662;-65
2022/04/25 09:25:10;;;;;;;;;38.75;36.25;;;;;;;;5094299;27;45756;-65
2022/04/25 09:27:35;;;;;;;;;36.50;32.50;;;;;;;;5082120;27;45496;-64
2022/04/25 09:30:12;;;;;;;;;40.00;33.75;;;;;;;;5081725;27;45598;-64
2022/04/25 09:32:38;;;;;;;;;38.75;34.00;;;;;;;;5049218;28;46336;-65
2022/04/25 09:35:22;;;;;;;;;34.50;32.00;;;;;;;;5078926;27;45439;-64
2022/04/25 09:37:47;;;;;;;;;38.75;34.75;;;;;;;;5093562;27;45902;-63
2022/04/25 09:40:17;;;;;;;;;31.00;29.25;;;;;;;;5060310;28;45503;-63
2022/04/25 09:42:43;;;;;;;;;35.50;32.50;;;;;;;;5081324;27;45826;-64
2022/04/25 09:45:08;;;;;;;;;36.00;31.25;;;;;;;;5081228;27;45553;-64
2022/04/25 09:47:34;;;;;;;;;38.25;32.25;;;;;;;;5081704;27;45563;-64
2022/04/25 09:50:00;;;;;;;;;39.75;33.25;;;;;;;;5078317;27;45432;-63
2022/04/25 09:52:26;;;;;;;;;32.25;32.00;;;;;;;;5076669;27;46413;-62
2022/04/25 09:54:51;;;;;;;;;30.00;30.00;;;;;;;;5080961;27;45490;-64
2022/04/25 09:57:30;;;;;;;;;35.25;31.50;;;;;;;;5081429;27;45530;-68
2022/04/25 09:59:56;;;;;;;;;25.75;25.50;;;;;;;;5062815;28;45483;-62
2022/04/25 10:02:22;;;;;;;;;25.25;23.75;;;;;;;;5080722;27;46353;-64
2022/04/25 10:04:47;;;;;;;;;23.25;23.25;;;;;;;;5092974;27;45499;-62
2022/04/25 10:07:13;;;;;;;;;25.00;25.00;;;;;;;;5079678;27;45399;-63
2022/04/25 10:09:39;;;;;;;;;29.50;27.00;;;;;;;;5053845;28;45531;-63
2022/04/25 10:12:05;;;;;;;;;25.25;23.50;;;;;;;;5086474;27;46382;-62
2022/04/25 10:14:30;;;;;;;;;25.00;22.50;;;;;;;;5065685;27;46111;-63
2022/04/25 10:16:56;;;;;;;;;30.50;28.25;;;;;;;;5092571;27;45405;-64
2022/04/25 10:19:22;;;;;;;;;26.25;26.25;;;;;;;;5074853;27;45491;-63
2022/04/25 10:21:47;;;;;;;;;31.50;29.75;;;;;;;;5080775;27;45866;-62
2022/04/25 10:24:15;;;;;;;;;25.00;24.50;;;;;;;;5062353;27;45436;-63
2022/04/25 10:26:40;;;;;;;;;21.50;21.50;;;;;;;;5080922;27;45592;-63
2022/04/25 10:29:08;;;;;;;;;20.25;19.50;;;;;;;;5078320;27;45427;-63
2022/04/25 10:31:38;;;;;;;;;21.25;20.25;;;;;;;;5076050;27;45891;-63
2022/04/25 10:34:04;;;;;;;;;21.50;20.00;;;;;;;;5077074;27;45416;-63
2022/04/25 10:36:38;;;;;;;;;18.50;18.50;;;;;;;;5080709;27;46203;-63
2022/04/25 10:39:23;;;;;;;;;21.00;20.00;;;;;;;;5083024;27;45563;-63
2022/04/25 10:44:40;;;;;;;;;16.25;16.25;;;;;;;;5092485;27;47162;-64
2022/04/25 10:47:05;;;;;;;;;22.00;19.25;;;;;;;;5081552;27;45553;-63
2022/04/25 10:49:37;;;;;;;;;18.00;18.00;;;;;;;;5079309;27;45431;-62
2022/04/25 10:52:03;;;;;;;;;22.75;22.00;;;;;;;;5094194;27;46083;-64
2022/04/25 10:54:46;;;;;;;;;20.75;18.75;;;;;;;;5086258;27;45909;-63
2022/04/25 10:57:11;;;;;;;;;18.50;16.25;;;;;;;;5083951;27;45499;-63
2022/04/25 10:59:39;;;;;;;;;19.25;19.25;;;;;;;;5083748;27;45483;-63
2022/04/25 11:02:21;;;;;;;;;19.25;18.00;;;;;;;;5081090;27;46836;-64
2022/04/25 11:04:46;;;;;;;;;23.50;21.75;;;;;;;;5077959;27;45444;-64
2022/04/25 11:07:18;;;;;;;;;23.25;22.00;;;;;;;;5081130;27;45486;-64
2022/04/25 11:09:43;;;;;;;;;19.00;19.00;;;;;;;;5083759;27;45604;-63
2022/04/25 11:12:09;;;;;;;;;19.00;19.00;;;;;;;;5083453;27;46484;-64
2022/04/25 11:14:34;;;;;;;;;18.75;18.00;;;;;;;;5083088;27;45419;-64
2022/04/25 11:17:11;;;;;;;;;15.50;15.50;;;;;;;;5080361;27;45583;-64
2022/04/25 11:19:48;;;;;;;;;20.00;18.25;;;;;;;;5079274;27;45551;-64
2022/04/25 11:22:32;;;;;;;;;21.00;19.00;;;;;;;;5095921;27;45900;-63
2022/04/25 11:25:17;;;;;;;;;17.25;17.25;;;;;;;;5095188;27;45471;-65
2022/04/25 11:28:01;;;;;;;;;16.50;16.50;;;;;;;;5083993;27;45591;-64
2022/04/25 11:30:26;;;;;;;;;15.75;15.50;;;;;;;;5083429;27;45431;-65
2022/04/25 11:32:52;;;;;;;;;14.25;13.00;;;;;;;;5083260;27;46615;-64
2022/04/25 11:35:22;;;;;;;;;13.50;12.50;;;;;;;;5082414;27;45571;-63
2022/04/25 11:37:48;;;;;;;;;16.50;16.00;;;;;;;;5078636;27;45547;-64
2022/04/25 11:40:14;;;;;;;;;16.75;14.75;;;;;;;;5062044;28;45395;-64
2022/04/25 11:42:40;;;;;;;;;16.25;15.50;;;;;;;;5083375;27;45604;-64
2022/04/25 11:45:05;;;;;;;;;14.50;12.75;;;;;;;;5083325;27;45452;-64
2022/04/25 11:47:31;;;;;;;;;11.75;11.75;;;;;;;;5083391;27;45577;-64
2022/04/25 11:50:04;;;;;;;;;11.25;11.00;;;;;;;;5078670;27;46868;-64
2022/04/25 11:52:30;;;;;;;;;12.25;12.25;;;;;;;;5078425;27;46595;-64
2022/04/25 11:54:55;;;;;;;;;15.00;13.75;;;;;;;;5082357;27;45380;-64
2022/04/25 11:57:21;;;;;;;;;10.25;10.25;;;;;;;;5091038;27;45398;-65
2022/04/25 11:59:46;;;;;;;;;14.50;14.50;;;;;;;;5094638;27;45731;-64
2022/04/25 12:02:11;;;;;;;;;16.00;14.75;;;;;;;;5058629;27;47453;-64
2022/04/25 12:04:37;;;;;;;;;11.50;11.50;;;;;;;;5078298;27;45405;-64
2022/04/25 12:07:03;;;;;;;;;11.50;10.75;;;;;;;;5079537;27;45418;-64
2022/04/25 12:17:47;;;;;;;;;11.75;10.25;;;;;;;;5082810;27;45569;-64
2022/04/25 12:20:13;;;;;;;;;9.50;9.50;;;;;;;;5081107;27;45497;-64
2022/04/25 12:22:40;;;;;;;;;12.50;12.00;;;;;;;;5077690;27;46127;-65
2022/04/25 12:25:11;;;;;;;;;12.75;11.00;;;;;;;;5080877;27;45528;-64
2022/04/25 12:27:36;;;;;;;;;12.25;10.50;;;;;;;;5082741;27;45485;-64
2022/04/25 12:30:05;;;;;;;;;8.25;8.25;;;;;;;;5082552;27;45569;-64
2022/04/25 12:32:30;;;;;;;;;8.25;7.75;;;;;;;;5082551;27;45742;-64
2022/04/25 12:34:55;;;;;;;;;6.00;6.00;;;;;;;;5078498;27;45427;-65
2022/04/25 12:37:20;;;;;;;;;7.75;7.75;;;;;;;;5078881;27;45587;-64
2022/04/25 12:40:04;;;;;;;;;9.50;9.50;;;;;;;;5080384;27;45698;-65
2022/04/25 12:42:46;;;;;;;;;9.75;9.25;;;;;;;;5085145;27;47729;-64
2022/04/25 12:45:11;;;;;;;;;7.00;7.00;;;;;;;;5082328;27;45419;-65
2022/04/25 12:47:36;;;;;;;;;7.50;7.50;;;;;;;;5082495;27;45486;-65
2022/04/25 12:50:03;;;;;;;;;6.25;6.25;;;;;;;;5061169;27;45491;-65
2022/04/25 12:52:43;;;;;;;;;6.75;6.75;;;;;;;;5078043;27;46313;-65
2022/04/25 12:55:09;;;;;;;;;4.00;4.00;;;;;;;;5079856;27;45429;-65
2022/04/25 12:57:34;;;;;;;;;5.00;5.00;;;;;;;;5082255;27;45427;-65
2022/04/25 13:00:00;;;;;;;;;5.50;5.00;;;;;;;;5081706;27;45562;-64
2022/04/25 13:02:32;;;;;;;;;8.75;7.75;;;;;;;;5081099;27;45689;-64
2022/04/25 13:05:04;;;;;;;;;5.50;4.75;;;;;;;;5077647;27;45558;-64
2022/04/25 13:07:30;;;;;;;;;5.00;5.00;;;;;;;;5059277;27;45543;-64
2022/04/25 13:09:59;;;;;;;;;5.75;5.75;;;;;;;;5081436;27;45527;-64
2022/04/25 13:12:44;;;;;;;;;6.75;5.50;;;;;;;;5081993;27;46100;-64
2022/04/25 13:15:12;;;;;;;;;5.50;5.50;;;;;;;;5081494;27;45665;-64
2022/04/25 13:17:38;;;;;;;;;5.00;4.00;;;;;;;;5083824;27;45591;-65
2022/04/25 13:20:07;;;;;;;;;5.50;4.50;;;;;;;;5093627;27;45940;-64
2022/04/25 13:22:33;;;;;;;;;7.75;5.25;;;;;;;;5058938;27;46702;-65
2022/04/25 13:24:59;;;;;;;;;5.75;5.75;;;;;;;;5080746;27;45456;-65
2022/04/25 13:27:25;;;;;;;;;6.50;6.50;;;;;;;;5081923;27;45513;-65
2022/04/25 13:29:50;;;;;;;;;6.25;6.25;;;;;;;;5082061;27;45393;-65
2022/04/25 13:32:16;;;;;;;;;5.00;5.00;;;;;;;;5080600;27;45534;-65
2022/04/25 13:34:41;;;;;;;;;4.00;4.00;;;;;;;;5076176;27;45472;-65
2022/04/25 13:37:06;;;;;;;;;7.50;6.00;;;;;;;;5079737;27;45401;-65
2022/04/25 13:39:32;;;;;;;;;5.00;4.50;;;;;;;;5081784;27;45493;-64
2022/04/25 13:41:59;;;;;;;;;5.00;5.00;;;;;;;;5063298;28;46626;-65
2022/04/25 13:44:25;;;;;;;;;6.75;5.00;;;;;;;;5081794;27;45534;-64
2022/04/25 13:46:50;;;;;;;;;5.00;5.00;;;;;;;;5075052;27;45411;-64
2022/04/25 13:49:15;;;;;;;;;6.00;5.25;;;;;;;;5093999;27;45490;-64
2022/04/25 13:51:41;;;;;;;;;8.25;6.25;;;;;;;;5062720;28;48250;-65
2022/04/25 13:54:06;;;;;;;;;5.00;5.00;;;;;;;;5081528;27;45470;-63
2022/04/25 13:56:32;;;;;;;;;5.00;5.00;;;;;;;;5064413;27;45499;-62
2022/04/25 13:58:57;;;;;;;;;2.75;2.75;;;;;;;;5093340;27;45554;-63
2022/04/25 14:01:22;;;;;;;;;4.25;3.00;;;;;;;;5077091;27;47400;-64
2022/04/25 14:03:49;;;;;;;;;4.00;4.00;;;;;;;;5063326;28;45543;-63
2022/04/25 14:06:14;;;;;;;;;3.75;3.75;;;;;;;;5081491;27;45465;-63
2022/04/25 14:08:40;;;;;;;;;4.00;4.00;;;;;;;;5081406;27;45362;-62
2022/04/25 14:11:05;;;;;;;;;5.25;5.00;;;;;;;;5078712;27;45632;-62
2022/04/25 14:13:30;;;;;;;;;4.00;4.00;;;;;;;;5078494;27;45385;-63
2022/04/25 14:15:56;;;;;;;;;3.75;3.75;;;;;;;;5084356;27;45321;-62
2022/04/25 14:18:21;;;;;;;;;5.00;3.25;;;;;;;;5066349;28;45389;-65
2022/04/25 14:20:47;;;;;;;;;4.00;4.00;;;;;;;;5084375;27;45807;-64
2022/04/25 14:23:12;;;;;;;;;4.00;3.25;;;;;;;;5082753;27;45439;-63
2022/04/25 14:25:38;;;;;;;;;6.50;5.00;;;;;;;;5061666;27;45306;-65
2022/04/25 14:28:03;;;;;;;;;6.00;4.25;;;;;;;;5083200;27;45387;-63
2022/04/25 14:30:29;;;;;;;;;5.00;5.00;;;;;;;;5084306;27;46036;-64
2022/04/25 14:32:54;;;;;;;;;4.00;4.00;;;;;;;;5084301;27;45994;-65
2022/04/25 14:35:20;;;;;;;;;4.75;4.75;;;;;;;;5083791;27;45496;-65
2022/04/25 14:37:46;;;;;;;;;4.25;4.25;;;;;;;;5096128;27;45672;-64
2022/04/25 14:40:12;;;;;;;;;3.00;3.00;;;;;;;;5081880;27;46198;-65
2022/04/25 14:42:37;;;;;;;;;4.00;4.00;;;;;;;;5084133;27;45426;-64
2022/04/25 14:45:03;;;;;;;;;4.50;4.50;;;;;;;;5084298;27;45763;-64
2022/04/25 14:47:28;;;;;;;;;4.00;4.00;;;;;;;;5084357;27;46052;-64
2022/04/25 14:55:21;;;;;;;;;3.50;3.50;;;;;;;;5092514;27;45549;-65
2022/04/25 14:57:50;;;;;;;;;5.00;5.00;;;;;;;;5066085;28;45466;-64
2022/04/25 15:00:15;;;;;;;;;4.50;4.00;;;;;;;;5065241;28;47144;-64